Marlin, TX (76661)

7:41 PM CST on February 11, 2016 (GMT -0600)
Cedar Springs | | Change Station
CLOSE
Current Station
Personal Weather Station
Location: Rosebud, TX
Elevation: 427 ft
Nearby Weather Stations

Elev 427 ft 31.18 °N, 96.92 °W | Updated 8 minutes ago

Clear
Clear
69.4 °F
Feels Like 69.4 °F
N
3.1
Wind Variable Wind from SE
Gusts 5.0 mph

Today
High -- | Low -- °F
--% Chance of Precip.
Yesterday
High -- | Low -- °F
Precip. -- in
Pressure 30.07 in
Visibility 10.0 miles
Clouds Clear
Dew Point 38 °F
Humidity 32%
Rainfall 0.00 in
Snow Depth Not available.
7:12 AM 6:11 PM
Waxing Crescent, 16% visible
METAR KCNW 120055Z 15006KT 10SM SKC 20/04 A3007
Pressure 30.07 in
Visibility 10.0 miles
Clouds Clear
Dew Point 38 °F
Humidity 32%
Rainfall 0.00 in
Snow Depth Not available.
7:12 AM 6:11 PM
Waxing Crescent, 16% visible
METAR KCNW 120055Z 15006KT 10SM SKC 20/04 A3007

10-Day Weather Forecast

Almanac

Astronomy

Feb. 11, 2016 Rise Set
Actual Time
Civil Twilight
Nautical Twilight
Astronomical Twilight
Moon
Length of Visible Light
Length of Day
Tomorrow will be .
, % of the Moon is Illuminated

Today's Extremes

State Highs State Lows

Community

WunderPhotos

Upload Photos

1,892,207 photos uploaded!

WunderBlog® & News

Nearby

Air Quality

  Air Quality AQ Index Pollutant
Not available.

Snow Depth

Station Depth Elevation

Earthquake Activity

City Distance Mag. Time & Date
Minimum magnitude displayed is 2.5.

Coastal Water Temperatures

Place Temperature

Stations

Nearby Weather Stations

Station Location Temp. Windchill Dew Point Humidity Wind Precip. Elev Updated Type
                   

Watches & Warnings

There are currently no watches in effect.